Time;durP1;ratioP1;P1;durP2;ratioP2;P2;SDS_P1;SDS_P2;PMS_P1;PMS_P2;Temp;Humidity;BMP_temperature;BMP_pressure;BME280_temperature;BME280_humidity;BME280_pressure;Samples;Min_cycle;Max_cycle;Signal;HPM_P1;HPM_P2
2022/07/29 00:00:10;;;;;;;30.80;29.20;;;21.40;84.20;;;;;;4967761;28;20643;-68
2022/07/29 00:02:37;;;;;;;39.93;37.37;;;21.40;84.50;;;;;;4965964;28;20484;-68
2022/07/29 00:05:05;;;;;;;31.10;29.60;;;21.30;84.40;;;;;;4963740;28;20467;-68
2022/07/29 00:07:32;;;;;;;34.53;32.73;;;21.30;84.40;;;;;;4967088;28;20551;-70
2022/07/29 00:10:00;;;;;;;32.73;30.83;;;21.30;84.40;;;;;;4969968;28;20499;-71
2022/07/29 00:12:27;;;;;;;31.97;30.20;;;21.30;84.60;;;;;;4967798;28;20551;-70
2022/07/29 00:14:55;;;;;;;33.60;31.70;;;21.20;84.90;;;;;;4967355;28;20494;-69
2022/07/29 00:17:22;;;;;;;31.30;29.70;;;21.20;85.00;;;;;;4966733;28;20509;-68
2022/07/29 00:19:49;;;;;;;32.87;31.10;;;21.20;85.00;;;;;;4967803;28;21068;-68
2022/07/29 00:22:16;;;;;;;33.73;31.60;;;21.20;85.00;;;;;;4969832;28;20490;-69
2022/07/29 00:24:43;;;;;;;35.30;33.40;;;21.10;85.00;;;;;;4966668;28;20467;-70
2022/07/29 00:27:11;;;;;;;31.97;30.37;;;21.10;85.10;;;;;;4963005;28;20472;-69
2022/07/29 00:29:39;;;;;;;31.33;29.83;;;21.10;85.30;;;;;;4967498;28;20609;-70
2022/07/29 00:32:06;;;;;;;30.47;28.97;;;21.10;85.20;;;;;;4961388;28;20463;-70
2022/07/29 00:37:17;;;;;;;31.80;29.90;;;21.10;85.70;;;;;;4957564;28;20538;-71
2022/07/29 00:39:44;;;;;;;33.20;31.40;;;21.10;85.90;;;;;;4963688;28;20553;-71
2022/07/29 00:42:13;;;;;;;30.73;29.30;;;21.10;86.00;;;;;;4970100;28;20476;-71
2022/07/29 00:44:41;;;;;;;31.50;29.70;;;21.00;85.70;;;;;;4966403;28;20887;-71
2022/07/29 00:47:09;;;;;;;31.00;29.50;;;21.00;85.70;;;;;;4969208;28;20501;-71
2022/07/29 00:49:36;;;;;;;31.20;29.40;;;21.00;85.90;;;;;;4972090;28;20489;-71
2022/07/29 00:52:03;;;;;;;30.83;29.30;;;21.00;85.90;;;;;;4971510;28;20455;-71
2022/07/29 00:54:30;;;;;;;30.20;28.60;;;21.00;85.60;;;;;;4968034;28;20465;-71
2022/07/29 00:56:59;;;;;;;31.90;30.17;;;21.00;85.80;;;;;;4972448;28;20550;-70
2022/07/29 00:59:28;;;;;;;30.60;29.00;;;21.10;85.40;;;;;;4971041;28;20549;-71
2022/07/29 01:01:55;;;;;;;29.43;27.83;;;21.10;85.30;;;;;;4972997;28;20558;-71
2022/07/29 01:04:23;;;;;;;30.60;28.97;;;21.10;85.50;;;;;;4969594;28;20841;-71
2022/07/29 01:06:51;;;;;;;30.30;28.60;;;21.10;85.40;;;;;;4972051;28;20984;-71
2022/07/29 01:09:19;;;;;;;31.33;29.83;;;21.00;85.50;;;;;;4972540;28;20483;-71
2022/07/29 01:11:48;;;;;;;32.80;31.10;;;21.00;85.30;;;;;;4972366;28;20556;-71
2022/07/29 01:14:16;;;;;;;32.30;30.60;;;21.00;85.50;;;;;;4963184;28;20474;-71
2022/07/29 01:16:51;;;;;;;32.83;31.10;;;21.00;85.40;;;;;;4965567;28;21034;-71
2022/07/29 01:19:37;;;;;;;32.47;30.87;;;21.00;85.40;;;;;;4966704;28;20545;-71
2022/07/29 01:22:24;;;;;;;31.53;29.80;;;21.00;85.60;;;;;;4973324;28;21028;-70
2022/07/29 01:25:18;;;;;;;31.07;29.57;;;20.90;85.80;;;;;;4970258;28;20948;-70
2022/07/29 01:28:00;;;;;;;33.90;32.00;;;20.90;85.70;;;;;;4971740;28;20471;-69
2022/07/29 01:30:29;;;;;;;33.53;31.83;;;20.90;85.70;;;;;;4974167;28;20483;-69
2022/07/29 01:33:02;;;;;;;32.27;30.57;;;20.90;85.60;;;;;;4974752;28;20476;-70
2022/07/29 01:35:36;;;;;;;32.30;30.70;;;20.90;85.80;;;;;;4973078;28;20565;-70
2022/07/29 01:38:09;;;;;;;30.33;28.83;;;20.90;85.80;;;;;;4966792;28;20539;-70
2022/07/29 01:40:39;;;;;;;29.80;28.40;;;20.90;85.80;;;;;;4968220;28;20519;-70
2022/07/29 01:43:12;;;;;;;31.53;29.83;;;20.80;86.10;;;;;;4970624;28;21098;-67
2022/07/29 01:45:44;;;;;;;31.10;29.70;;;20.80;86.20;;;;;;4967740;28;20577;-67
2022/07/29 01:48:15;;;;;;;31.10;29.60;;;20.80;86.30;;;;;;4971063;28;20503;-67
2022/07/29 01:50:48;;;;;;;30.07;28.67;;;20.70;86.20;;;;;;4971421;28;20529;-68
2022/07/29 01:53:26;;;;;;;30.03;28.53;;;20.70;86.10;;;;;;4970119;28;20482;-68
2022/07/29 01:55:56;;;;;;;31.70;29.90;;;20.70;86.10;;;;;;4972332;28;20485;-68
2022/07/29 01:58:26;;;;;;;31.97;30.40;;;20.70;85.80;;;;;;4970526;28;20459;-68
2022/07/29 02:00:56;;;;;;;31.20;29.60;;;20.70;85.70;;;;;;4971505;28;20554;-68
2022/07/29 02:03:24;;;;;;;30.50;28.93;;;20.70;85.60;;;;;;4968971;28;20556;-68
2022/07/29 02:05:52;;;;;;;31.40;29.80;;;20.60;85.50;;;;;;4970199;28;20556;-68
2022/07/29 02:08:21;;;;;;;30.40;29.00;;;20.60;85.50;;;;;;4969894;28;20553;-68
2022/07/29 02:10:51;;;;;;;32.90;31.40;;;20.60;85.60;;;;;;4970690;28;20562;-68
2022/07/29 02:13:21;;;;;;;30.87;29.27;;;20.60;85.60;;;;;;4968855;28;20492;-68
2022/07/29 02:15:51;;;;;;;30.07;28.67;;;20.60;85.70;;;;;;4966926;28;20558;-68
2022/07/29 02:18:21;;;;;;;29.20;27.80;;;20.60;85.60;;;;;;4967404;28;20501;-69
2022/07/29 02:20:50;;;;;;;30.40;28.90;;;20.60;85.60;;;;;;4971390;28;20569;-70
2022/07/29 02:23:20;;;;;;;32.50;30.80;;;20.50;85.70;;;;;;4970773;28;20470;-69
2022/07/29 02:25:49;;;;;;;34.23;32.43;;;20.50;85.70;;;;;;4970810;28;20538;-68
2022/07/29 02:28:18;;;;;;;30.60;29.03;;;20.50;85.80;;;;;;4969033;28;20902;-68
2022/07/29 02:30:46;;;;;;;31.80;30.30;;;20.50;85.70;;;;;;4974897;28;21061;-68
2022/07/29 02:33:16;;;;;;;31.70;30.07;;;20.50;85.70;;;;;;4969652;28;20504;-68
2022/07/29 02:35:47;;;;;;;33.03;31.33;;;20.50;85.60;;;;;;4970671;28;20573;-68
2022/07/29 02:41:02;;;;;;;37.20;35.40;;;20.50;85.90;;;;;;4971176;28;20444;-68
2022/07/29 02:43:31;;;;;;;33.40;31.70;;;20.50;85.90;;;;;;4970669;28;21156;-70
2022/07/29 02:46:00;;;;;;;35.03;33.30;;;20.40;86.20;;;;;;4970553;28;20478;-70
2022/07/29 02:48:34;;;;;;;35.53;33.73;;;20.40;86.20;;;;;;4970231;28;20557;-69
2022/07/29 02:51:09;;;;;;;31.03;29.63;;;20.40;86.10;;;;;;4969577;28;21048;-70
2022/07/29 02:53:39;;;;;;;36.30;34.40;;;20.30;86.30;;;;;;4969821;28;20560;-68
2022/07/29 02:56:11;;;;;;;32.57;30.77;;;20.30;86.00;;;;;;4969083;28;20467;-68
2022/07/29 02:58:42;;;;;;;44.07;41.93;;;20.40;85.80;;;;;;4970009;28;20541;-69
2022/07/29 03:01:15;;;;;;;29.90;28.33;;;20.30;85.70;;;;;;4969454;28;20541;-69
2022/07/29 03:03:44;;;;;;;29.40;28.00;;;20.40;85.40;;;;;;4962633;28;20489;-69
2022/07/29 03:06:15;;;;;;;32.80;31.30;;;20.30;85.40;;;;;;4970613;28;21003;-70
2022/07/29 03:08:43;;;;;;;30.13;28.77;;;20.30;85.40;;;;;;4963526;28;20549;-70
2022/07/29 03:11:11;;;;;;;35.57;33.87;;;20.30;85.40;;;;;;4970705;28;20492;-69
2022/07/29 03:13:38;;;;;;;30.57;28.97;;;20.30;85.70;;;;;;4969538;28;20802;-68
2022/07/29 03:16:06;;;;;;;30.30;28.80;;;20.20;85.70;;;;;;4970584;28;20546;-68
2022/07/29 03:18:34;;;;;;;36.50;34.80;;;20.20;86.10;;;;;;4968754;28;20470;-69
2022/07/29 03:21:01;;;;;;;32.00;30.50;;;20.10;86.80;;;;;;4970538;28;20872;-69
2022/07/29 03:23:30;;;;;;;38.57;36.83;;;20.00;87.00;;;;;;4968528;28;20536;-69
2022/07/29 03:25:57;;;;;;;40.97;39.10;;;20.00;86.80;;;;;;4971799;28;20458;-69
2022/07/29 03:28:24;;;;;;;30.33;28.93;;;20.10;86.60;;;;;;4968340;28;20800;-69
2022/07/29 03:30:51;;;;;;;46.33;44.30;;;20.10;86.30;;;;;;4971046;28;20556;-70
2022/07/29 03:33:18;;;;;;;30.40;28.97;;;20.20;86.10;;;;;;4968139;28;20558;-69
2022/07/29 03:35:45;;;;;;;34.60;33.00;;;20.20;86.00;;;;;;4970928;28;20458;-70
2022/07/29 03:38:12;;;;;;;37.80;36.10;;;20.20;86.10;;;;;;4970005;28;21213;-71
2022/07/29 03:40:45;;;;;;;31.50;30.10;;;20.20;85.90;;;;;;4969759;28;20520;-71
2022/07/29 03:43:15;;;;;;;37.57;35.87;;;20.20;85.80;;;;;;4968868;28;20959;-71
2022/07/29 03:45:45;;;;;;;33.97;32.33;;;20.20;85.80;;;;;;4968239;28;20516;-71
2022/07/29 03:48:16;;;;;;;49.30;47.07;;;20.20;85.90;;;;;;4968132;28;20467;-71
2022/07/29 03:50:43;;;;;;;30.17;28.77;;;20.30;85.70;;;;;;4970067;28;20931;-71
2022/07/29 03:53:11;;;;;;;29.67;28.33;;;20.20;86.30;;;;;;4965969;28;20950;-71
2022/07/29 03:55:45;;;;;;;32.13;30.60;;;20.00;87.10;;;;;;4967531;28;20512;-71
2022/07/29 03:58:15;;;;;;;40.13;38.13;;;20.00;87.40;;;;;;4968174;28;20589;-72
2022/07/29 04:00:43;;;;;;;30.40;28.70;;;20.00;87.10;;;;;;4968113;28;20547;-72
2022/07/29 04:03:11;;;;;;;32.33;30.83;;;20.00;87.20;;;;;;4966941;28;20857;-72
2022/07/29 04:05:38;;;;;;;29.20;27.90;;;20.00;87.20;;;;;;4966379;28;20466;-71
2022/07/29 04:08:05;;;;;;;37.63;35.60;;;20.00;87.10;;;;;;4969330;28;21080;-71
2022/07/29 04:10:32;;;;;;;29.83;28.43;;;20.10;86.80;;;;;;4968620;28;20572;-70
2022/07/29 04:13:01;;;;;;;40.07;38.17;;;20.20;86.40;;;;;;4966051;28;20492;-70
2022/07/29 04:15:28;;;;;;;41.00;39.10;;;20.20;86.10;;;;;;4967826;28;20544;-71
2022/07/29 04:17:55;;;;;;;50.13;47.80;;;20.20;86.00;;;;;;4969533;28;20565;-70
2022/07/29 04:20:22;;;;;;;30.60;29.23;;;20.30;85.90;;;;;;4971857;28;20481;-70
2022/07/29 04:22:49;;;;;;;57.17;54.47;;;20.30;85.50;;;;;;4967748;28;20575;-71
2022/07/29 04:25:16;;;;;;;40.13;38.30;;;20.40;85.40;;;;;;4967509;28;20550;-68
2022/07/29 04:30:26;;;;;;;40.33;38.53;;;20.50;84.70;;;;;;4969130;28;20485;-69
2022/07/29 04:32:53;;;;;;;42.37;40.53;;;20.50;84.70;;;;;;4971439;28;20900;-74
2022/07/29 04:35:20;;;;;;;44.77;42.67;;;20.60;84.30;;;;;;4971938;28;20455;-70
2022/07/29 04:37:47;;;;;;;32.00;30.60;;;20.70;84.00;;;;;;4974041;28;20531;-71
2022/07/29 04:40:14;;;;;;;37.03;35.40;;;20.70;83.90;;;;;;4970075;28;20565;-72
2022/07/29 04:42:41;;;;;;;39.80;38.10;;;20.70;84.00;;;;;;4971087;28;20455;-77
2022/07/29 04:45:09;;;;;;;40.30;38.50;;;20.70;84.00;;;;;;4970825;28;20479;-71
2022/07/29 04:47:37;;;;;;;41.80;39.90;;;20.80;84.00;;;;;;4971166;28;20979;-70
2022/07/29 04:50:05;;;;;;;35.57;34.07;;;20.80;84.00;;;;;;4970755;28;20561;-71
2022/07/29 04:52:32;;;;;;;37.67;35.97;;;20.90;83.40;;;;;;4972636;28;20470;-71
2022/07/29 04:54:59;;;;;;;32.50;31.13;;;20.80;83.60;;;;;;4969578;28;20560;-71
2022/07/29 04:57:26;;;;;;;32.70;31.30;;;20.90;83.20;;;;;;4972131;28;20460;-70
2022/07/29 04:59:53;;;;;;;50.43;48.07;;;20.90;83.10;;;;;;4971994;28;20507;-70
2022/07/29 05:02:20;;;;;;;45.50;43.47;;;20.90;82.90;;;;;;4970812;28;20547;-70
2022/07/29 05:04:48;;;;;;;42.10;40.10;;;20.90;82.70;;;;;;4970260;28;20467;-69
2022/07/29 05:07:15;;;;;;;37.17;35.60;;;21.10;82.50;;;;;;4966228;28;20472;-69
2022/07/29 05:09:42;;;;;;;34.70;33.17;;;21.10;81.80;;;;;;4968210;28;20565;-69
2022/07/29 05:12:09;;;;;;;30.60;29.10;;;21.30;81.40;;;;;;4973123;28;20500;-69
2022/07/29 05:14:36;;;;;;;45.97;43.87;;;21.40;80.70;;;;;;4967380;28;20523;-70
2022/07/29 05:17:03;;;;;;;35.47;33.77;;;21.50;80.10;;;;;;4972286;28;20455;-72
2022/07/29 05:19:31;;;;;;;29.60;28.30;;;21.60;79.50;;;;;;4971595;28;22775;-74
2022/07/29 05:22:01;;;;;;;32.40;30.90;;;21.80;78.90;;;;;;4966769;28;20941;-74
2022/07/29 05:24:27;;;;;;;36.73;35.03;;;22.00;78.20;;;;;;4958863;28;20494;-72
2022/07/29 05:26:54;;;;;;;33.90;32.30;;;22.00;77.70;;;;;;4963149;28;20540;-70
2022/07/29 05:29:22;;;;;;;29.80;28.20;;;22.10;77.00;;;;;;4961785;28;20479;-71
2022/07/29 05:31:51;;;;;;;34.97;33.23;;;22.20;76.90;;;;;;4969082;28;20524;-72
2022/07/29 05:34:19;;;;;;;37.35;35.60;;;22.30;76.20;;;;;;4970829;28;20483;-73
2022/07/29 05:36:46;;;;;;;43.90;41.90;;;22.40;76.20;;;;;;4972542;28;20278;-71
2022/07/29 05:39:14;;;;;;;34.50;33.00;;;22.60;75.60;;;;;;4968296;28;20958;-71
2022/07/29 05:41:41;;;;;;;30.63;29.13;;;22.70;75.20;;;;;;4970661;28;20464;-71
2022/07/29 05:44:08;;;;;;;47.43;45.37;;;22.90;74.70;;;;;;4969195;28;20458;-70
2022/07/29 05:46:35;;;;;;;37.87;36.17;;;23.00;74.20;;;;;;4967612;28;20549;-70
2022/07/29 05:49:03;;;;;;;40.57;38.77;;;23.10;73.90;;;;;;4971367;28;20884;-71
2022/07/29 05:51:30;;;;;;;45.00;42.90;;;23.30;73.70;;;;;;4969837;28;21008;-70
2022/07/29 05:53:57;;;;;;;33.33;31.60;;;23.40;73.30;;;;;;4961673;28;20467;-71
2022/07/29 05:56:26;;;;;;;36.50;34.90;;;23.50;73.00;;;;;;4969012;28;20518;-69
2022/07/29 05:58:53;;;;;;;35.33;33.57;;;23.60;72.60;;;;;;4970441;28;20483;-71
2022/07/29 06:01:21;;;;;;;46.30;44.20;;;23.70;72.10;;;;;;4966556;28;20546;-71
2022/07/29 06:03:47;;;;;;;35.23;33.73;;;23.80;71.80;;;;;;4976724;28;20537;-72
2022/07/29 06:06:14;;;;;;;53.40;50.73;;;24.10;71.30;;;;;;4965542;28;20479;-72
2022/07/29 06:08:41;;;;;;;37.10;35.50;;;24.30;70.80;;;;;;4970573;28;20466;-71
2022/07/29 06:11:09;;;;;;;36.20;34.50;;;24.40;70.30;;;;;;4963329;28;20578;-72
2022/07/29 06:13:38;;;;;;;35.60;33.90;;;24.50;70.00;;;;;;4971080;28;20984;-72
2022/07/29 06:16:05;;;;;;;38.57;36.67;;;24.60;69.80;;;;;;4971146;28;20459;-71
2022/07/29 06:18:32;;;;;;;45.40;43.30;;;24.70;69.10;;;;;;4969553;28;20467;-72
2022/07/29 06:20:59;;;;;;;38.30;36.47;;;24.90;68.90;;;;;;4971665;28;20896;-72
2022/07/29 06:23:26;;;;;;;51.30;48.73;;;25.00;68.60;;;;;;4968259;28;20466;-71
2022/07/29 06:25:53;;;;;;;36.07;34.37;;;25.20;68.00;;;;;;4971757;28;20542;-69
2022/07/29 06:28:20;;;;;;;51.00;48.50;;;25.30;68.30;;;;;;4971031;28;20492;-69
2022/07/29 06:30:49;;;;;;;37.20;35.40;;;25.30;68.00;;;;;;4971240;28;20567;-69
2022/07/29 06:33:19;;;;;;;49.70;47.30;;;25.60;67.30;;;;;;4972267;28;20476;-68
2022/07/29 06:35:47;;;;;;;47.23;44.77;;;25.80;67.00;;;;;;4970647;28;20873;-67
2022/07/29 06:38:14;;;;;;;36.37;34.77;;;25.80;66.80;;;;;;4969324;28;20461;-68
2022/07/29 06:41:04;;;;;;;40.10;38.27;;;26.10;66.40;;;;;;4972236;28;20584;-68
2022/07/29 06:43:35;;;;;;;36.50;34.90;;;26.20;66.10;;;;;;4972159;28;20642;-70
2022/07/29 06:46:06;;;;;;;37.90;35.90;;;26.40;65.30;;;;;;4970876;28;20518;-70
2022/07/29 06:48:34;;;;;;;37.37;35.67;;;26.50;64.60;;;;;;4969246;28;20497;-71
2022/07/29 06:51:01;;;;;;;50.57;47.97;;;26.60;64.60;;;;;;4970437;28;20545;-71
2022/07/29 06:53:28;;;;;;;50.53;48.13;;;26.60;64.40;;;;;;4969636;28;20973;-71
2022/07/29 06:55:56;;;;;;;37.33;35.53;;;26.50;64.90;;;;;;4970873;28;20541;-71
2022/07/29 06:58:22;;;;;;;35.70;34.00;;;26.50;64.80;;;;;;4969324;28;20562;-70
2022/07/29 07:00:50;;;;;;;47.23;45.00;;;26.50;64.60;;;;;;4968942;28;20891;-70
2022/07/29 07:03:19;;;;;;;45.67;43.37;;;26.60;64.70;;;;;;4971495;28;20486;-71
2022/07/29 07:05:47;;;;;;;54.60;51.97;;;26.70;64.50;;;;;;4970216;28;20869;-69
2022/07/29 07:08:15;;;;;;;40.63;38.83;;;26.80;64.30;;;;;;4970464;28;20462;-70
2022/07/29 07:10:43;;;;;;;36.13;34.40;;;26.90;64.10;;;;;;4969358;28;20491;-69
2022/07/29 07:13:10;;;;;;;37.47;35.57;;;27.00;63.80;;;;;;4968728;28;20495;-72
2022/07/29 07:15:38;;;;;;;42.40;40.40;;;27.10;63.30;;;;;;4967236;28;20507;-73
2022/07/29 07:18:05;;;;;;;42.10;39.97;;;27.20;62.90;;;;;;4971534;28;21023;-71
2022/07/29 07:20:34;;;;;;;44.50;42.43;;;27.20;62.80;;;;;;4967344;28;20478;-70
2022/07/29 07:23:01;;;;;;;35.67;33.90;;;27.10;62.60;;;;;;4969483;28;20553;-68
2022/07/29 07:25:28;;;;;;;43.13;40.93;;;27.20;62.80;;;;;;4971672;28;20538;-68
2022/07/29 07:27:55;;;;;;;35.67;33.97;;;27.30;62.40;;;;;;4971071;28;20550;-67
2022/07/29 07:30:22;;;;;;;46.90;44.67;;;27.30;62.30;;;;;;4969137;28;20479;-68
2022/07/29 07:32:49;;;;;;;46.27;43.87;;;27.40;62.10;;;;;;4968997;28;20822;-68
2022/07/29 07:35:16;;;;;;;38.13;36.13;;;27.40;62.20;;;;;;4970785;28;20558;-68
2022/07/29 07:37:45;;;;;;;47.87;45.57;;;27.50;62.20;;;;;;4970851;28;20553;-69
2022/07/29 07:40:12;;;;;;;40.83;38.80;;;27.50;62.10;;;;;;4970291;28;20922;-69
2022/07/29 07:42:39;;;;;;;38.67;36.57;;;27.70;62.10;;;;;;4970554;28;20542;-67
2022/07/29 07:45:09;;;;;;;51.27;48.77;;;27.70;62.00;;;;;;4970465;28;20566;-68
2022/07/29 07:47:36;;;;;;;56.17;53.73;;;27.80;62.00;;;;;;4968174;28;20471;-68
2022/07/29 07:50:03;;;;;;;37.20;35.50;;;28.00;61.70;;;;;;4971282;28;20501;-68
2022/07/29 07:52:30;;;;;;;37.30;35.60;;;28.00;61.50;;;;;;4966495;28;20569;-69
2022/07/29 07:54:59;;;;;;;42.60;39.97;;;28.20;61.00;;;;;;4969445;28;20554;-70
2022/07/29 07:57:26;;;;;;;45.53;43.13;;;28.30;60.60;;;;;;4969474;28;20455;-68
2022/07/29 07:59:53;;;;;;;40.30;38.20;;;28.30;60.80;;;;;;4966048;28;20577;-69
2022/07/29 08:02:20;;;;;;;49.97;47.60;;;28.30;60.00;;;;;;4965910;28;20518;-68
2022/07/29 08:04:47;;;;;;;54.77;52.13;;;28.30;59.80;;;;;;4968848;28;20533;-67
2022/07/29 08:07:14;;;;;;;44.77;42.43;;;28.20;59.80;;;;;;4970110;28;20455;-68
2022/07/29 08:09:41;;;;;;;50.47;48.00;;;28.20;59.80;;;;;;4972098;28;20482;-68
2022/07/29 08:12:10;;;;;;;40.60;38.50;;;28.20;59.40;;;;;;4970994;28;20475;-67
2022/07/29 08:14:37;;;;;;;41.20;37.47;;;28.30;59.60;;;;;;4969799;28;20494;-67
2022/07/29 08:17:04;;;;;;;49.77;47.50;;;28.40;59.60;;;;;;4967776;28;20553;-67
2022/07/29 08:19:31;;;;;;;54.20;51.07;;;28.50;58.90;;;;;;4971312;28;20482;-67
2022/07/29 08:21:58;;;;;;;49.97;47.67;;;28.50;59.00;;;;;;4969301;28;20463;-67
2022/07/29 08:24:43;;;;;;;42.40;40.20;;;28.70;58.60;;;;;;4969438;28;20463;-67
2022/07/29 08:27:12;;;;;;;53.83;51.33;;;28.60;58.70;;;;;;4973829;28;20467;-67
2022/07/29 08:29:39;;;;;;;51.07;48.57;;;28.60;58.50;;;;;;4971337;28;20486;-67
2022/07/29 08:32:07;;;;;;;58.87;56.17;;;28.50;58.00;;;;;;4970227;28;20483;-67
2022/07/29 08:34:34;;;;;;;49.70;47.30;;;28.30;56.10;;;;;;4969132;28;20965;-67
2022/07/29 08:37:01;;;;;;;45.63;43.53;;;27.70;57.10;;;;;;4969115;28;20485;-68
2022/07/29 08:39:27;;;;;;;57.50;54.60;;;27.60;57.00;;;;;;4968750;28;20498;-67
2022/07/29 08:41:55;;;;;;;44.87;42.67;;;27.40;56.90;;;;;;4970951;28;20463;-67
2022/07/29 08:44:23;;;;;;;40.13;38.13;;;27.30;57.30;;;;;;4970328;28;20461;-68
2022/07/29 08:46:50;;;;;;;54.80;52.10;;;27.30;56.80;;;;;;4969951;28;20540;-67
2022/07/29 08:49:18;;;;;;;53.27;50.47;;;27.40;56.80;;;;;;4968665;28;20578;-68
2022/07/29 08:51:45;;;;;;;46.20;43.90;;;27.40;58.30;;;;;;4967788;28;20499;-68
2022/07/29 08:54:17;;;;;;;45.00;42.80;;;27.50;59.00;;;;;;4962442;28;20464;-68
2022/07/29 08:56:44;;;;;;;50.43;48.23;;;27.50;59.40;;;;;;4970554;28;20552;-68
2022/07/29 08:59:13;;;;;;;55.37;52.70;;;27.40;59.90;;;;;;4969304;28;20530;-68
2022/07/29 09:01:44;;;;;;;54.20;51.70;;;27.30;60.00;;;;;;4970797;28;20551;-69
2022/07/29 09:04:12;;;;;;;42.97;40.97;;;27.50;59.40;;;;;;4970344;28;20681;-70
2022/07/29 09:06:44;;;;;;;50.43;48.03;;;27.50;56.70;;;;;;4972155;28;20893;-70
2022/07/29 09:09:13;;;;;;;44.03;41.93;;;27.50;55.70;;;;;;4972845;28;20479;-70
2022/07/29 09:11:41;;;;;;;48.10;45.67;;;27.50;57.60;;;;;;4965457;28;20478;-70
2022/07/29 09:14:08;;;;;;;50.67;48.17;;;27.60;58.20;;;;;;4966494;28;20810;-70
2022/07/29 09:16:54;;;;;;;53.03;50.30;;;27.60;58.10;;;;;;4970644;28;20558;-71
2022/07/29 09:19:30;;;;;;;40.60;38.33;;;27.60;58.00;;;;;;4971353;28;20557;-70
2022/07/29 09:21:57;;;;;;;43.00;40.80;;;27.80;57.50;;;;;;4970888;28;21038;-71
2022/07/29 09:24:25;;;;;;;45.33;42.87;;;27.90;56.80;;;;;;4969748;28;20533;-72
2022/07/29 09:26:52;;;;;;;42.20;40.00;;;28.10;56.40;;;;;;4970782;28;20495;-70
2022/07/29 09:29:21;;;;;;;42.00;39.80;;;28.30;56.10;;;;;;4982356;28;20497;-70
2022/07/29 09:31:53;;;;;;;42.83;40.50;;;28.50;55.60;;;;;;4971786;28;20984;-69
2022/07/29 09:34:24;;;;;;;53.70;50.87;;;28.50;55.20;;;;;;4970135;28;20490;-69
2022/07/29 09:36:52;;;;;;;41.73;39.60;;;28.70;55.00;;;;;;4972263;28;20498;-69
2022/07/29 09:39:28;;;;;;;46.97;44.57;;;28.80;53.90;;;;;;4972978;28;20566;-70
2022/07/29 09:41:57;;;;;;;43.93;41.73;;;28.80;53.60;;;;;;4973022;28;20533;-69
2022/07/29 09:44:25;;;;;;;46.93;44.70;;;28.70;53.60;;;;;;4966809;28;20471;-70
2022/07/29 09:46:59;;;;;;;54.57;51.37;;;28.80;53.50;;;;;;4966018;28;20521;-69
2022/07/29 09:49:26;;;;;;;58.93;55.73;;;28.90;53.60;;;;;;4967763;28;21021;-69
2022/07/29 09:52:07;;;;;;;47.70;45.23;;;29.10;53.50;;;;;;4970473;28;20514;-70
2022/07/29 09:54:37;;;;;;;50.17;47.77;;;29.40;52.90;;;;;;4968852;28;20545;-69
2022/07/29 09:57:05;;;;;;;40.90;39.00;;;29.60;52.60;;;;;;4971253;28;20996;-70
2022/07/29 09:59:32;;;;;;;60.90;58.00;;;29.80;52.00;;;;;;4967129;28;20483;-70
2022/07/29 10:02:01;;;;;;;51.33;48.47;;;29.90;50.80;;;;;;4970446;28;20549;-69
2022/07/29 10:04:39;;;;;;;41.87;39.87;;;29.70;51.40;;;;;;4970177;28;20463;-70
2022/07/29 10:07:06;;;;;;;51.80;49.23;;;29.60;51.60;;;;;;4970581;28;20467;-71
2022/07/29 10:09:34;;;;;;;41.77;39.77;;;29.50;51.70;;;;;;4970279;28;20507;-70
2022/07/29 10:12:10;;;;;;;49.57;47.27;;;29.30;51.40;;;;;;4969313;28;20490;-69
2022/07/29 10:14:38;;;;;;;47.43;44.80;;;29.10;52.00;;;;;;4971894;28;20455;-70
2022/07/29 10:17:08;;;;;;;58.37;55.63;;;28.90;52.00;;;;;;4969194;28;20554;-70
2022/07/29 10:19:36;;;;;;;61.53;58.33;;;28.90;51.70;;;;;;4965744;28;20566;-72
2022/07/29 10:22:05;;;;;;;41.47;39.20;;;29.00;51.70;;;;;;4958845;28;20451;-70
2022/07/29 10:24:33;;;;;;;41.30;39.20;;;29.00;51.70;;;;;;4962695;28;20494;-70
2022/07/29 10:27:02;;;;;;;43.40;41.30;;;28.60;52.50;;;;;;4969444;28;20541;-69
2022/07/29 10:29:31;;;;;;;41.57;39.60;;;28.50;53.00;;;;;;4967321;28;20577;-69
2022/07/29 10:32:17;;;;;;;44.87;42.67;;;28.40;53.20;;;;;;4970118;28;20494;-70
2022/07/29 10:35:08;;;;;;;63.50;60.27;;;28.40;53.30;;;;;;4971203;28;20454;-72
2022/07/29 10:37:50;;;;;;;43.30;41.00;;;28.20;54.30;;;;;;4969423;28;20547;-70
2022/07/29 10:43:26;;;;;;;44.60;42.30;;;27.80;56.50;;;;;;4956406;28;20451;-70
2022/07/29 10:45:57;;;;;;;58.80;55.50;;;27.30;58.00;;;;;;4967058;28;20586;-71
2022/07/29 10:48:26;;;;;;;41.30;39.20;;;27.10;60.00;;;;;;4966091;28;20480;-71
2022/07/29 10:50:55;;;;;;;53.67;50.87;;;26.90;60.10;;;;;;4966526;28;20498;-70
2022/07/29 10:53:23;;;;;;;45.30;42.60;;;26.90;60.50;;;;;;4968113;28;20485;-71
2022/07/29 10:55:52;;;;;;;50.17;47.37;;;26.80;62.30;;;;;;4970016;28;20467;-70
2022/07/29 10:58:22;;;;;;;45.27;42.53;;;26.60;63.90;;;;;;4967926;28;21462;-70
2022/07/29 11:00:51;;;;;;;54.97;52.17;;;26.50;65.50;;;;;;4964162;28;20475;-70
2022/07/29 11:03:48;;;;;;;42.47;40.13;;;26.40;68.60;;;;;;4961147;28;20512;-71
2022/07/29 11:06:15;;;;;;;47.13;43.70;;;26.00;68.70;;;;;;4957598;28;20472;-72
2022/07/29 11:08:43;;;;;;;41.50;39.30;;;25.60;71.90;;;;;;4962612;28;20991;-70
2022/07/29 11:11:42;;;;;;;57.27;54.27;;;25.00;72.70;;;;;;4964654;28;20477;-70
2022/07/29 11:14:09;;;;;;;46.27;43.70;;;24.50;73.30;;;;;;4965691;28;20547;-69
2022/07/29 11:17:06;;;;;;;47.87;45.23;;;24.20;76.40;;;;;;4968195;28;20558;-69
2022/07/29 11:19:36;;;;;;;56.83;53.47;;;23.90;78.20;;;;;;4966168;28;20492;-70
2022/07/29 11:22:03;;;;;;;44.20;41.80;;;23.70;79.40;;;;;;4968988;28;20459;-70
2022/07/29 11:24:32;;;;;;;49.23;46.53;;;23.70;80.10;;;;;;4966872;28;20467;-69
2022/07/29 11:27:14;;;;;;;48.60;45.77;;;23.60;80.60;;;;;;4970141;28;20562;-70
2022/07/29 11:29:49;;;;;;;59.70;56.73;;;23.70;80.40;;;;;;4963602;28;20565;-70
2022/07/29 11:32:19;;;;;;;43.23;40.93;;;23.80;79.70;;;;;;4968621;28;20479;-70
2022/07/29 11:34:49;;;;;;;41.07;38.80;;;23.90;79.50;;;;;;4968276;28;20463;-73
2022/07/29 11:37:24;;;;;;;54.17;51.30;;;24.00;78.20;;;;;;4970329;28;20511;-70
2022/07/29 11:40:16;;;;;;;49.40;46.63;;;24.20;77.20;;;;;;4969256;28;21240;-73
2022/07/29 11:42:48;;;;;;;43.33;40.80;;;24.40;78.30;;;;;;4965015;28;20555;-72
2022/07/29 11:45:28;;;;;;;47.03;44.33;;;24.30;79.20;;;;;;4970672;28;20550;-70
2022/07/29 11:47:59;;;;;;;42.97;40.47;;;24.30;79.30;;;;;;4967907;28;20555;-69
2022/07/29 11:50:34;;;;;;;44.63;41.73;;;24.40;79.30;;;;;;4971713;28;21220;-69
2022/07/29 11:53:02;;;;;;;47.43;45.03;;;24.40;79.60;;;;;;4971254;28;20515;-69
2022/07/29 11:55:31;;;;;;;40.30;37.90;;;24.60;79.50;;;;;;4971542;28;20461;-69
2022/07/29 11:58:01;;;;;;;45.30;42.43;;;24.60;79.80;;;;;;4969188;28;20460;-69
2022/07/29 12:00:30;;;;;;;51.90;49.00;;;24.70;78.90;;;;;;4967261;28;20523;-70
2022/07/29 12:02:58;;;;;;;49.37;46.87;;;24.70;77.90;;;;;;4967945;28;20550;-72
2022/07/29 12:05:39;;;;;;;39.27;37.20;;;24.80;76.80;;;;;;4969766;28;20556;-75
2022/07/29 12:08:12;;;;;;;45.50;43.00;;;24.90;72.80;;;;;;4969153;28;20458;-72
2022/07/29 12:10:39;;;;;;;47.47;45.10;;;24.90;74.00;;;;;;4967786;28;20484;-72
2022/07/29 12:13:06;;;;;;;52.30;49.50;;;24.90;74.50;;;;;;4966016;28;20495;-71
2022/07/29 12:15:33;;;;;;;40.47;38.50;;;25.10;73.60;;;;;;4965090;28;20541;-72
2022/07/29 12:18:11;;;;;;;38.40;36.50;;;25.20;70.30;;;;;;4965926;28;20562;-72
2022/07/29 12:20:39;;;;;;;57.60;54.80;;;25.50;69.40;;;;;;4966982;28;20577;-72
2022/07/29 12:23:08;;;;;;;50.70;48.10;;;25.40;69.80;;;;;;4969211;28;20550;-71
2022/07/29 12:25:37;;;;;;;47.80;45.50;;;25.50;69.20;;;;;;4962726;28;21007;-71
2022/07/29 12:28:05;;;;;;;39.60;37.70;;;25.60;68.50;;;;;;4968258;28;20465;-71
2022/07/29 12:30:41;;;;;;;51.73;49.13;;;25.60;69.40;;;;;;4964757;28;20488;-70
2022/07/29 12:33:18;;;;;;;52.20;49.50;;;25.50;70.40;;;;;;4964558;28;20478;-74
2022/07/29 12:35:49;;;;;;;41.40;39.23;;;25.30;71.10;;;;;;4968990;28;20468;-74
2022/07/29 12:38:16;;;;;;;42.20;39.97;;;25.40;71.70;;;;;;4968976;28;21963;-73
2022/07/29 12:40:45;;;;;;;42.67;40.50;;;25.20;71.90;;;;;;4968690;28;20477;-74
2022/07/29 12:43:15;;;;;;;44.93;42.70;;;25.20;71.30;;;;;;4968301;28;20534;-72
2022/07/29 12:45:44;;;;;;;41.00;39.10;;;25.20;71.20;;;;;;4968036;28;20482;-72
2022/07/29 12:48:11;;;;;;;41.30;39.20;;;25.10;71.00;;;;;;4967918;28;20547;-72
2022/07/29 12:50:55;;;;;;;41.27;38.90;;;25.00;72.30;;;;;;4968844;28;20559;-72